Detalii statie PROACUA CEFA [00001987]

Toti senzorii

Date Temperatura solului [C]Precipitatii [mm]Voltaj baterie [mV]Leaf Wetness [Min]HC Air temperature [C]HC Relative humidity [%]Punctul de roua [C]
medieminmaxsumaultimatimpmedieminmaxmediemediemin
2017-10-20 09:00:00 0 7118 8.97 7.13 10.98 0 0 0
2017-10-20 10:00:00 0 7324 12.96 11.41 14.2 0 0 0
2017-10-20 11:00:00 0 7332 15.81 14.46 17.21 0 0 0
2017-10-20 12:00:00 0 7324 18.67 17.61 19.87 0 0 0
2017-10-20 13:00:00 0 7324 20.67 19.89 21.51 25 0
2017-10-20 14:00:00 0 7332 22.01 21.48 22.57 0 0 0
2017-10-20 15:00:00 0 7304 22.83 22.39 23.23 0 0 0
2017-10-20 16:00:00 0 7080 22.77 22.32 23.34 0 0 0
2017-10-20 17:00:00 0 7264 21.72 20.29 22.42 0 0 0
2017-10-20 18:00:00 0 6894 16.48 13.61 19.59 0 0 0
2017-10-20 19:00:00 0 6894 12.17 11.41 13.23 0 0 0
2017-10-20 20:00:00 0 6884 10.24 9.35 11.03 0 0 0
2017-10-20 21:00:00 0 6874 11.88 10 13.37 0 0 0
2017-10-20 22:00:00 0 6864 10.6 7.53 12.46 0 0 0
2017-10-20 23:00:00 0 6874 7.19 6.69 7.72 0 0 0
2017-10-21 00:00:00 0 6864 6.78 5.97 8.78 0 0 0
2017-10-21 01:00:00 0 6854 8.95 7.36 10.12 0 0 0
2017-10-21 02:00:00 0 6864 9.42 9 9.85 0 0 0
2017-10-21 03:00:00 0 6854 9.15 8.94 9.37 0 0 0
2017-10-21 04:00:00 0 6864 8.75 8.6 9.14 0 0 0
2017-10-21 05:00:00 0 6854 8.29 7.9 8.74 0 0 0
2017-10-21 06:00:00 0 6854 7.48 7.21 8.17 0 0 0
2017-10-21 07:00:00 0 6854 6.57 6.09 7.07 0 0 0
2017-10-21 08:00:00 0 7000 6.65 6.19 7.15 0 0 0
2017-10-21 09:00:00 0 7108 9.36 7.36 11.38 0 0 0
2017-10-21 10:00:00 0 7314 13.44 11.66 14.58 0 0 0
2017-10-21 11:00:00 0 7314 14.7 14.32 15.15 0 0 0
2017-10-21 12:00:00 0 7216 15.85 15.27 16.17 0 0 0
2017-10-21 13:00:00 0 7342 16.15 15.99 16.86 0 0 0
2017-10-21 14:00:00 0 7304 16.91 16.63 17.27 0 0 0
2017-10-21 15:00:00 0 7118 17.39 17.14 17.7 0 0 0
2017-10-21 16:00:00 0 7060 17.04 16.54 17.69 0 0 0
2017-10-21 17:00:00 0 6922 15.65 14.95 16.37 0 0 0
2017-10-21 18:00:00 0 6904 14.03 13.4 14.81 0 0 0
2017-10-21 19:00:00 0 6904 13.15 12.87 13.42 0 0 0
2017-10-21 20:00:00 0 6894 12.75 12.55 13.25 0 0 0
2017-10-21 21:00:00 0 6874 12.82 12.48 13.24 0 0 0
2017-10-21 22:00:00 0 6884 12.12 11.95 12.49 0 0 0
2017-10-21 23:00:00 0 6874 12.21 11.95 12.41 0 0 0
2017-10-22 00:00:00 0 6864 12.36 12.18 12.55 0 0 0
2017-10-22 01:00:00 0 6864 11.51 10.54 12.3 0 0 0
2017-10-22 02:00:00 0 6874 10.24 9.44 10.81 0 0 0
2017-10-22 03:00:00 0 6854 10.18 9.51 10.51 0 0 0
2017-10-22 04:00:00 0 6864 8.61 8.2 9.02 0 0 0
2017-10-22 05:00:00 0 6864 8.3 7.75 8.83 0 0 0
2017-10-22 06:00:00 0.2 6864 7.92 7.47 8.2 0 0 0
2017-10-22 07:00:00 0 6864 7.53 6.84 7.93 0 0 0
2017-10-22 08:00:00 0 6874 7.66 7.35 8.1 0 0 0